createdAt,value
2017-10-13T00:00:41.472Z,68.00
2017-10-13T00:03:09.108Z,68.00
2017-10-13T00:05:36.738Z,68.60
2017-10-13T00:08:04.422Z,68.20
2017-10-13T00:10:32.052Z,69.00
2017-10-13T00:12:59.671Z,68.20
2017-10-13T00:15:27.363Z,69.30
2017-10-13T00:17:54.989Z,69.90
2017-10-13T00:20:22.614Z,69.90
2017-10-13T00:22:51.147Z,69.50
2017-10-13T00:25:18.774Z,69.20
2017-10-13T00:27:47.399Z,70.40
2017-10-13T00:30:15.091Z,69.10
2017-10-13T00:35:10.343Z,69.90
2017-10-13T00:37:38.038Z,70.80
2017-10-13T00:40:05.659Z,70.40
2017-10-13T00:42:33.279Z,70.40
2017-10-13T00:47:28.586Z,71.30
2017-10-13T00:49:56.212Z,71.40
2017-10-13T00:52:23.896Z,72.20
2017-10-13T00:54:51.514Z,72.10
2017-10-13T00:57:19.147Z,72.60
2017-10-13T00:59:46.820Z,71.40
2017-10-13T01:02:14.448Z,72.10
2017-10-13T01:04:42.074Z,72.70
2017-10-13T01:07:09.752Z,73.50
2017-10-13T01:09:37.373Z,73.70
2017-10-13T01:12:05.002Z,74.00
2017-10-13T01:14:33.625Z,73.90
2017-10-13T01:17:01.255Z,73.20
2017-10-13T01:22:08.034Z,73.50
2017-10-13T01:24:36.614Z,73.80
2017-10-13T01:27:04.248Z,73.50
2017-10-13T01:29:32.821Z,74.00
2017-10-13T01:32:00.458Z,74.50
2017-10-13T01:34:28.094Z,74.50
2017-10-13T01:36:56.608Z,74.30
2017-10-13T01:39:24.244Z,74.50
2017-10-13T01:41:51.875Z,74.30
2017-10-13T01:44:19.567Z,74.10
2017-10-13T01:46:47.215Z,73.70
2017-10-13T01:49:14.850Z,73.80
2017-10-13T01:51:42.528Z,73.70
2017-10-13T01:54:10.149Z,73.70
2017-10-13T01:56:37.776Z,72.80
2017-10-13T01:59:06.424Z,74.10
2017-10-13T02:01:34.048Z,74.20
2017-10-13T02:04:01.678Z,74.40
2017-10-13T02:06:29.358Z,74.60
2017-10-13T02:08:56.976Z,74.90
2017-10-13T02:13:52.296Z,75.20
2017-10-13T02:16:19.910Z,75.10
2017-10-13T02:18:47.536Z,74.80
2017-10-13T02:21:15.223Z,73.50
2017-10-13T02:23:42.857Z,73.60
2017-10-13T02:26:11.319Z,73.80
2017-10-13T02:31:06.634Z,75.00
2017-10-13T02:33:34.257Z,74.90
2017-10-13T02:36:01.936Z,74.70
2017-10-13T02:38:29.938Z,74.00
2017-10-13T02:40:57.570Z,73.60
2017-10-13T02:43:25.262Z,72.20
2017-10-13T02:45:52.890Z,72.10
2017-10-13T02:50:59.676Z,72.90
2017-10-13T02:53:27.309Z,73.20
2017-10-13T02:55:54.932Z,73.80
2017-10-13T02:58:22.623Z,74.50
2017-10-13T03:00:50.258Z,74.60
2017-10-13T03:03:17.883Z,74.90
2017-10-13T03:05:45.596Z,75.90
2017-10-13T03:08:13.250Z,75.40
2017-10-13T03:10:40.865Z,76.00
2017-10-13T03:15:37.084Z,75.80
2017-10-13T03:18:04.724Z,75.90
2017-10-13T03:20:32.422Z,76.20
2017-10-13T03:23:00.054Z,76.30
2017-10-13T03:25:27.682Z,76.00
2017-10-13T03:27:55.372Z,76.30
2017-10-13T03:30:23.014Z,76.80
2017-10-13T03:32:51.458Z,77.20
2017-10-13T03:35:19.147Z,77.90
2017-10-13T03:37:46.787Z,78.10
2017-10-13T03:40:14.438Z,78.20
2017-10-13T03:42:42.114Z,78.60
2017-10-13T03:45:09.737Z,78.70
2017-10-13T03:47:38.211Z,78.90
2017-10-13T03:50:05.906Z,78.20
2017-10-13T03:52:33.548Z,78.30
2017-10-13T03:55:01.175Z,78.20
2017-10-13T03:57:28.866Z,77.70
2017-10-13T03:59:57.212Z,77.50
2017-10-13T04:02:24.831Z,77.50
2017-10-13T04:04:52.505Z,77.90
2017-10-13T04:07:20.130Z,78.20
2017-10-13T04:09:48.708Z,78.60
2017-10-13T04:14:57.477Z,77.30
2017-10-13T04:17:25.175Z,76.70
2017-10-13T04:19:52.803Z,75.50
2017-10-13T04:22:20.429Z,75.50
2017-10-13T04:24:48.113Z,75.40
2017-10-13T04:27:15.768Z,74.60
2017-10-13T04:29:43.392Z,75.00
2017-10-13T04:32:11.092Z,74.70
2017-10-13T04:34:38.724Z,75.70
2017-10-13T04:37:07.300Z,75.10
2017-10-13T04:39:34.981Z,74.50
2017-10-13T04:42:12.939Z,74.50
2017-10-13T04:44:41.343Z,73.60
2017-10-13T04:47:08.449Z,74.00
2017-10-13T04:49:36.085Z,73.60
2017-10-13T04:52:03.759Z,74.30
2017-10-13T04:54:31.388Z,74.40
2017-10-13T04:56:59.006Z,74.90
2017-10-13T04:59:26.684Z,75.20
2017-10-13T05:01:54.315Z,75.30
2017-10-13T05:04:22.142Z,74.70
2017-10-13T05:06:49.782Z,75.60
2017-10-13T05:09:17.404Z,75.90
2017-10-13T05:11:45.027Z,76.30
2017-10-13T05:14:12.709Z,76.50
2017-10-13T05:16:40.332Z,76.60
2017-10-13T05:19:07.957Z,77.00
2017-10-13T05:21:35.632Z,77.10
2017-10-13T05:24:03.256Z,77.20
2017-10-13T05:26:30.889Z,77.40
2017-10-13T05:28:58.583Z,77.00
2017-10-13T05:31:26.228Z,77.00
2017-10-13T05:36:33.728Z,76.70
2017-10-13T05:39:02.323Z,76.20
2017-10-13T05:41:29.957Z,75.30
2017-10-13T05:43:57.633Z,75.10
2017-10-13T05:46:25.281Z,74.90
2017-10-13T05:48:52.906Z,75.10
2017-10-13T05:51:20.606Z,75.50
2017-10-13T05:53:49.164Z,76.00
2017-10-13T05:58:44.493Z,76.50
2017-10-13T06:01:12.106Z,76.60
2017-10-13T06:03:39.748Z,76.60
2017-10-13T06:06:07.433Z,76.80
2017-10-13T06:08:35.055Z,76.80
2017-10-13T06:11:02.689Z,77.70
2017-10-13T06:13:30.376Z,77.00
2017-10-13T06:15:58.008Z,76.10
2017-10-13T06:18:25.663Z,75.60
2017-10-13T06:20:53.348Z,75.10
2017-10-13T06:23:20.982Z,75.80
2017-10-13T06:25:48.616Z,75.70
2017-10-13T06:28:17.119Z,75.50
2017-10-13T06:30:44.744Z,78.20
2017-10-13T06:33:12.371Z,74.80
2017-10-13T06:35:40.055Z,76.30
2017-10-13T06:38:07.686Z,74.30
2017-10-13T06:40:36.316Z,74.90
2017-10-13T06:43:03.999Z,74.40
2017-10-13T06:45:31.635Z,73.30
2017-10-13T06:47:59.266Z,73.00
2017-10-13T06:50:26.958Z,72.70
2017-10-13T06:52:54.584Z,72.50
2017-10-13T06:55:22.223Z,72.70
2017-10-13T06:57:49.911Z,70.80
2017-10-13T07:00:17.541Z,69.80
2017-10-13T07:07:51.966Z,71.80
2017-10-13T07:10:20.560Z,69.30
2017-10-13T07:15:16.785Z,65.40
2017-10-13T07:17:44.467Z,64.90
2017-10-13T07:22:40.677Z,63.00
2017-10-13T07:25:08.359Z,63.60
2017-10-13T07:27:35.996Z,61.60
2017-10-13T07:30:03.632Z,62.90
2017-10-13T07:32:31.312Z,63.30
2017-10-13T07:34:58.946Z,62.40
2017-10-13T07:37:26.573Z,63.20
2017-10-13T07:42:21.913Z,63.00
2017-10-13T07:44:49.553Z,62.50
2017-10-13T07:49:44.866Z,59.00
2017-10-13T07:52:12.508Z,59.10
2017-10-13T07:54:40.189Z,59.30
2017-10-13T07:57:07.824Z,58.50
2017-10-13T07:59:35.455Z,56.40
2017-10-13T08:02:03.136Z,56.70
2017-10-13T08:04:30.776Z,54.90
2017-10-13T08:06:58.408Z,55.70
2017-10-13T08:09:27.047Z,54.10
2017-10-13T08:11:54.686Z,54.00
2017-10-13T08:14:22.312Z,53.30
2017-10-13T08:16:50.815Z,54.00
2017-10-13T08:19:18.445Z,53.50
2017-10-13T08:21:46.088Z,53.00
2017-10-13T08:24:13.751Z,53.50
2017-10-13T08:29:09.041Z,52.10
2017-10-13T08:34:17.824Z,53.50
2017-10-13T08:36:45.512Z,53.30
2017-10-13T08:39:13.999Z,52.00
2017-10-13T08:41:41.636Z,54.40
2017-10-13T08:44:09.329Z,53.30
2017-10-13T08:46:36.962Z,54.40
2017-10-13T08:49:04.593Z,53.30
2017-10-13T08:53:59.953Z,55.20
2017-10-13T08:56:27.581Z,55.00
2017-10-13T09:01:22.903Z,51.60
2017-10-13T09:03:50.539Z,53.20
2017-10-13T09:06:18.243Z,53.00
2017-10-13T09:08:45.877Z,53.00
2017-10-13T09:11:13.495Z,52.70
2017-10-13T09:13:41.163Z,51.30
2017-10-13T09:16:08.789Z,50.90
2017-10-13T09:18:36.412Z,50.00
2017-10-13T09:21:04.102Z,49.80
2017-10-13T09:23:31.708Z,48.20
2017-10-13T09:25:59.333Z,48.60
2017-10-13T09:28:27.012Z,50.00
2017-10-13T09:30:54.636Z,49.30
2017-10-13T09:33:22.252Z,48.40
2017-10-13T09:35:49.929Z,47.20
2017-10-13T09:38:17.552Z,46.00
2017-10-13T09:40:45.182Z,45.00
2017-10-13T09:43:12.859Z,43.00
2017-10-13T09:45:40.676Z,40.70
2017-10-13T09:50:47.638Z,42.90
2017-10-13T09:53:15.265Z,44.00
2017-10-13T09:55:42.893Z,43.10
2017-10-13T09:58:10.581Z,44.10
2017-10-13T10:00:38.219Z,45.30
2017-10-13T10:03:05.845Z,45.00
2017-10-13T10:05:33.528Z,43.40
2017-10-13T10:08:01.172Z,43.90
2017-10-13T10:10:28.795Z,42.50
2017-10-13T10:12:56.471Z,43.50
2017-10-13T10:15:24.092Z,39.90
2017-10-13T10:17:51.714Z,39.80
2017-10-13T10:20:19.391Z,40.70
2017-10-13T10:22:47.021Z,40.70
2017-10-13T10:25:14.652Z,40.60
2017-10-13T10:27:42.347Z,41.10
2017-10-13T10:30:09.967Z,41.30
2017-10-13T10:32:37.595Z,38.80
2017-10-13T10:35:05.286Z,41.80
2017-10-13T10:37:32.914Z,39.50
2017-10-13T10:40:00.546Z,40.80
2017-10-13T10:42:28.248Z,40.30
2017-10-13T10:44:55.881Z,40.00
2017-10-13T10:47:23.508Z,39.40
2017-10-13T10:49:51.195Z,38.40
2017-10-13T10:52:18.829Z,37.10
2017-10-13T10:54:46.531Z,39.20
2017-10-13T10:57:14.140Z,37.80
2017-10-13T10:59:41.776Z,34.80
2017-10-13T11:02:09.430Z,35.80
2017-10-13T11:04:37.114Z,36.10
2017-10-13T11:09:43.897Z,35.90
2017-10-13T11:12:11.523Z,37.20
2017-10-13T11:14:39.145Z,36.00
2017-10-13T11:17:06.824Z,35.30
2017-10-13T11:19:34.451Z,36.60
2017-10-13T11:22:02.081Z,36.50
2017-10-13T11:24:29.799Z,36.30
2017-10-13T11:26:57.409Z,35.20
2017-10-13T11:31:52.709Z,36.70
2017-10-13T11:34:20.351Z,36.90
2017-10-13T11:36:48.006Z,37.60
2017-10-13T11:39:16.511Z,34.60
2017-10-13T11:41:44.139Z,34.80
2017-10-13T11:44:11.760Z,37.80
2017-10-13T11:46:39.439Z,36.80
2017-10-13T11:49:07.074Z,36.30
2017-10-13T11:51:35.235Z,34.90
2017-10-13T11:54:02.910Z,37.50
2017-10-13T11:56:30.639Z,35.40
2017-10-13T11:58:58.205Z,35.40
2017-10-13T12:01:25.897Z,34.60
2017-10-13T12:03:53.528Z,35.30
2017-10-13T12:08:48.844Z,34.80
2017-10-13T12:11:16.479Z,34.90
2017-10-13T12:13:44.112Z,33.10
2017-10-13T12:16:11.806Z,33.50
2017-10-13T12:18:39.431Z,32.80
2017-10-13T12:21:07.050Z,34.60
2017-10-13T12:23:34.736Z,33.40
2017-10-13T12:26:02.398Z,31.80
2017-10-13T12:28:30.017Z,33.60
2017-10-13T12:30:57.699Z,33.10
2017-10-13T12:38:32.135Z,32.60
2017-10-13T12:40:59.759Z,35.00
2017-10-13T12:43:27.387Z,33.20
2017-10-13T12:45:55.077Z,32.10
2017-10-13T12:48:22.704Z,32.80
2017-10-13T12:50:50.341Z,33.00
2017-10-13T12:53:18.025Z,33.00
2017-10-13T12:55:45.649Z,33.30
2017-10-13T12:58:13.276Z,35.00
2017-10-13T13:00:40.965Z,33.00
2017-10-13T13:03:08.594Z,33.10
2017-10-13T13:05:36.224Z,32.40
2017-10-13T13:08:04.853Z,34.50
2017-10-13T13:10:32.468Z,35.30
2017-10-13T13:13:00.098Z,34.40
2017-10-13T13:15:27.782Z,34.50
2017-10-13T13:17:55.421Z,35.90
2017-10-13T13:20:23.053Z,35.70
2017-10-13T13:22:50.748Z,36.60
2017-10-13T13:25:18.371Z,37.30
2017-10-13T13:27:46.000Z,36.90
2017-10-13T13:30:13.678Z,36.90
2017-10-13T13:32:41.302Z,38.10
2017-10-13T13:35:08.917Z,37.60
2017-10-13T13:37:36.598Z,34.90
2017-10-13T13:40:04.216Z,36.30
2017-10-13T13:42:31.844Z,37.70
2017-10-13T13:44:59.525Z,36.30
2017-10-13T13:47:28.113Z,35.70
2017-10-13T13:49:55.750Z,38.10
2017-10-13T13:52:23.440Z,35.30
2017-10-13T13:54:51.064Z,34.50
2017-10-13T13:57:18.689Z,35.90
2017-10-13T13:59:46.368Z,35.40
2017-10-13T14:07:20.767Z,35.10
2017-10-13T14:09:48.391Z,34.90
2017-10-13T14:12:16.100Z,36.10
2017-10-13T14:14:43.783Z,33.90
2017-10-13T14:17:11.408Z,34.00
2017-10-13T14:19:39.046Z,35.60
2017-10-13T14:22:06.735Z,36.30
2017-10-13T14:24:34.382Z,36.80
2017-10-13T14:27:02.138Z,36.60
2017-10-13T14:29:29.713Z,37.20
2017-10-13T14:31:57.380Z,38.30
2017-10-13T14:34:25.006Z,38.40
2017-10-13T14:36:52.688Z,38.40
2017-10-13T14:39:20.312Z,39.10
2017-10-13T14:41:47.945Z,39.90
2017-10-13T14:44:15.635Z,40.00
2017-10-13T14:49:10.883Z,42.30
2017-10-13T14:51:38.600Z,42.30
2017-10-13T14:54:06.243Z,42.60
2017-10-13T14:56:33.873Z,42.50
2017-10-13T14:59:01.564Z,42.40
2017-10-13T15:01:29.192Z,43.70
2017-10-13T15:03:56.832Z,43.80
2017-10-13T15:06:25.492Z,43.60
2017-10-13T15:11:21.727Z,43.60
2017-10-13T15:13:49.422Z,43.80
2017-10-13T15:16:17.044Z,44.20
2017-10-13T15:18:44.668Z,44.80
2017-10-13T15:21:13.362Z,45.40
2017-10-13T15:23:41.118Z,45.90
2017-10-13T15:28:48.674Z,48.20
2017-10-13T15:34:01.132Z,49.30
2017-10-13T15:36:30.650Z,49.10
2017-10-13T15:39:03.962Z,48.60
2017-10-13T15:41:37.193Z,49.00
2017-10-13T15:44:10.503Z,48.70
2017-10-13T15:46:43.744Z,48.90
2017-10-13T15:49:16.995Z,50.40
2017-10-13T15:51:50.362Z,50.70
2017-10-13T15:56:45.622Z,50.90
2017-10-13T15:59:13.318Z,50.00
2017-10-13T16:01:40.942Z,49.90
2017-10-13T16:04:08.563Z,51.40
2017-10-13T16:06:36.258Z,51.50
2017-10-13T16:09:03.878Z,51.00
2017-10-13T16:11:31.506Z,51.60
2017-10-13T16:13:59.192Z,51.90
2017-10-13T16:16:27.529Z,52.20
2017-10-13T16:18:55.155Z,52.00
2017-10-13T16:21:22.827Z,52.60
2017-10-13T16:23:50.465Z,52.80
2017-10-13T16:26:18.090Z,53.10
2017-10-13T16:28:45.817Z,53.20
2017-10-13T16:31:13.446Z,53.20
2017-10-13T16:33:41.080Z,53.40
2017-10-13T16:36:08.763Z,52.90
2017-10-13T16:38:36.398Z,52.90
2017-10-13T16:41:04.030Z,53.40
2017-10-13T16:43:32.682Z,53.10
2017-10-13T16:46:00.305Z,53.00
2017-10-13T16:48:27.930Z,53.50
2017-10-13T16:53:36.752Z,52.80
2017-10-13T16:56:04.504Z,53.10
2017-10-13T16:58:32.156Z,55.30
2017-10-13T17:00:59.787Z,54.70
2017-10-13T17:03:27.458Z,54.50
2017-10-13T17:08:22.790Z,54.70
2017-10-13T17:10:50.463Z,54.90
2017-10-13T17:13:18.105Z,55.30
2017-10-13T17:15:45.750Z,56.00
2017-10-13T17:18:13.428Z,57.30
2017-10-13T17:20:41.064Z,58.10
2017-10-13T17:23:08.699Z,57.80
2017-10-13T17:25:36.375Z,58.20
2017-10-13T17:28:04.008Z,58.50
2017-10-13T17:30:31.683Z,58.10
2017-10-13T17:32:59.379Z,57.70
2017-10-13T17:40:33.832Z,57.40
2017-10-13T17:43:02.196Z,57.90
2017-10-13T17:45:29.813Z,59.10
2017-10-13T17:47:58.392Z,58.90
2017-10-13T17:50:26.977Z,59.80
2017-10-13T17:52:54.642Z,58.70
2017-10-13T17:55:22.357Z,58.60
2017-10-13T17:57:49.983Z,58.90
2017-10-13T18:00:17.643Z,59.40
2017-10-13T18:03:10.333Z,59.90
2017-10-13T18:05:55.327Z,59.10
2017-10-13T18:08:15.705Z,59.40
2017-10-13T18:14:09.529Z,59.50
2017-10-13T18:16:37.242Z,60.40
2017-10-13T18:19:05.852Z,61.00
2017-10-13T18:24:26.333Z,59.90
2017-10-13T18:27:10.572Z,60.50
2017-10-13T18:32:32.856Z,61.80
2017-10-13T18:51:57.273Z,63.50
2017-10-13T18:54:24.741Z,64.50
2017-10-13T18:56:53.130Z,64.00
2017-10-13T18:59:20.692Z,64.80
2017-10-13T19:01:48.320Z,63.60
2017-10-13T19:04:16.919Z,62.20
2017-10-13T19:06:44.328Z,63.60
2017-10-13T19:09:12.226Z,63.50
2017-10-13T19:11:39.746Z,62.60
2017-10-13T19:16:35.236Z,62.70
2017-10-13T19:19:02.743Z,62.50
2017-10-13T19:21:30.383Z,62.90
2017-10-13T19:23:58.086Z,63.30
2017-10-13T19:26:27.668Z,63.30
2017-10-13T19:28:54.767Z,64.30
2017-10-13T19:31:22.473Z,64.30
2017-10-13T19:33:50.093Z,63.90
2017-10-13T19:36:17.720Z,63.30
2017-10-13T19:38:46.181Z,62.50
2017-10-13T19:41:13.871Z,62.90
2017-10-13T19:43:43.066Z,62.70
2017-10-13T19:46:10.970Z,62.60
2017-10-13T19:48:39.756Z,63.30
2017-10-13T19:51:07.798Z,62.50
2017-10-13T19:53:35.783Z,61.80
2017-10-13T19:56:03.746Z,64.00
2017-10-13T19:58:31.287Z,62.90
2017-10-13T20:00:59.002Z,63.60
2017-10-13T20:03:26.627Z,63.00
2017-10-13T20:05:54.274Z,63.30
2017-10-13T20:08:22.154Z,63.60
2017-10-13T20:13:28.943Z,63.50
2017-10-13T20:15:56.644Z,63.40
2017-10-13T20:18:24.277Z,64.10
2017-10-13T20:20:51.983Z,63.80
2017-10-13T20:23:19.628Z,63.80
2017-10-13T20:25:47.363Z,64.90
2017-10-13T20:28:15.060Z,65.80
2017-10-13T20:30:42.716Z,65.40
2017-10-13T20:33:10.341Z,64.90
2017-10-13T20:38:05.684Z,65.40
2017-10-13T20:40:33.406Z,66.20
2017-10-13T20:43:01.028Z,66.60
2017-10-13T20:45:28.665Z,67.30
2017-10-13T20:47:56.304Z,67.00
2017-10-13T20:52:51.677Z,66.00
2017-10-13T20:55:19.318Z,66.00
2017-10-13T20:57:47.118Z,65.80
2017-10-13T21:02:42.333Z,65.60
2017-10-13T21:05:10.006Z,66.40
2017-10-13T21:07:37.628Z,67.10
2017-10-13T21:10:05.253Z,67.40
2017-10-13T21:15:00.632Z,68.20
2017-10-13T21:17:28.205Z,68.00
2017-10-13T21:19:56.438Z,67.60
2017-10-13T21:22:24.075Z,66.90
2017-10-13T21:24:51.706Z,67.60
2017-10-13T21:27:19.413Z,67.00
2017-10-13T21:29:47.463Z,67.80
2017-10-13T21:32:15.406Z,67.60
2017-10-13T21:37:22.136Z,68.10
2017-10-13T21:39:49.880Z,68.90
2017-10-13T21:42:17.500Z,69.00
2017-10-13T21:44:45.123Z,68.00
2017-10-13T21:47:12.804Z,67.70
2017-10-13T21:49:40.430Z,67.90
2017-10-13T21:52:09.068Z,66.60
2017-10-13T21:54:36.720Z,66.90
2017-10-13T21:57:04.345Z,67.20
2017-10-13T21:59:32.059Z,66.40
2017-10-13T22:01:59.716Z,68.80
2017-10-13T22:04:27.342Z,67.80
2017-10-13T22:06:54.965Z,68.60
2017-10-13T22:09:22.645Z,68.40
2017-10-13T22:11:50.284Z,68.40
2017-10-13T22:14:17.911Z,68.20
2017-10-13T22:16:45.609Z,67.70
2017-10-13T22:21:40.833Z,67.60
2017-10-13T22:24:08.515Z,68.50
2017-10-13T22:26:36.145Z,67.90
2017-10-13T22:29:03.769Z,68.30
2017-10-13T22:31:31.449Z,68.60
2017-10-13T22:33:59.992Z,68.70
2017-10-13T22:36:28.136Z,68.70
2017-10-13T22:41:28.553Z,68.10
2017-10-13T22:44:02.295Z,68.60
2017-10-13T22:46:30.717Z,70.10
2017-10-13T22:48:58.340Z,71.90
2017-10-13T22:51:25.963Z,71.40
2017-10-13T22:53:53.584Z,70.90
2017-10-13T22:56:21.252Z,70.50
2017-10-13T22:58:48.876Z,71.20
2017-10-13T23:03:55.643Z,70.80
2017-10-13T23:06:23.261Z,70.60
2017-10-13T23:08:50.893Z,70.10
2017-10-13T23:11:18.579Z,69.70
2017-10-13T23:13:46.203Z,71.80
2017-10-13T23:16:13.852Z,71.60
2017-10-13T23:18:41.532Z,72.30
2017-10-13T23:21:09.156Z,71.90
2017-10-13T23:23:36.772Z,71.90
2017-10-13T23:26:04.453Z,73.20
2017-10-13T23:30:59.727Z,73.80
2017-10-13T23:33:27.409Z,73.50
2017-10-13T23:35:55.031Z,72.70
2017-10-13T23:38:22.660Z,72.30
2017-10-13T23:40:50.347Z,72.80
2017-10-13T23:43:18.896Z,72.90
2017-10-13T23:45:46.515Z,73.10
2017-10-13T23:48:14.219Z,72.70
2017-10-13T23:50:41.850Z,73.40
2017-10-13T23:53:09.460Z,73.40
2017-10-13T23:55:37.136Z,72.70
2017-10-13T23:58:04.764Z,74.80
